Flight Track Log - Related Links

Times and Time Zones

All times are in EDT time to prevent confusion due to time zone crossing. See the N79TE flight status page for this flight to view local times or setup timezone preferences in your user account.

Time Position Orientation Groundspeed Altitude Reporting Facility
EDT Latitude Longitude Course Direction KTS MPH feet Rate Location/Type
Thu 04:39:58 PM 39.2756 -106.9367 287° West 167 192 12,500  Level Denver Center
Thu 04:41:00 PM 39.2414 -106.9619 210° Southwest 166 191 15,000 2,323 Climbing Denver Center
Thu 04:42:02 PM 39.1897 -106.9675 185° South 178 205 17,300 2,129 Climbing Denver Center
Thu 04:43:04 PM 39.1408 -106.9731 185° South 178 205 19,400 2,177 Climbing Denver Center
Thu 04:44:00 PM 39.2636 -107.1309 174° South  Level FlightAware Approximate
Thu 04:44:06 PM 39.0769 -106.9792 184° South 189 217 21,800  Level Denver Center
Thu 04:45:07 PM 39.0308 -106.9472 152° Southeast 207 238 23,500 1,512 Climbing Denver Center
Thu 04:46:09 PM 38.9914 -106.8942 134° Southeast 214 246 24,900 726 Climbing Denver Center
Thu 04:47:11 PM 38.9339 -106.8228 136° Southeast 256 295 25,000 48 Climbing Denver Center
Thu 04:48:13 PM 38.8756 -106.7514 136° Southeast 292 336 25,000  Level Denver Center
Thu 04:49:15 PM 38.8139 -106.6739 136° Southeast 307 353 25,000  Level Denver Center
Thu 04:50:16 PM 38.7503 -106.5972 137° Southeast 311 358 25,000  Level Denver Center
Thu 04:51:18 PM 38.6867 -106.5197 136° Southeast 315 362 25,000  Level Denver Center
Thu 04:52:20 PM 38.6097 -106.4267 137° Southeast 317 365 25,000  Level Denver Center
Thu 04:53:22 PM 38.5450 -106.3517 138° Southeast 316 364 25,000  Level Denver Center
Thu 04:54:24 PM 38.4822 -106.2722 135° Southeast 318 366 25,000  Level Denver Center
Thu 04:55:25 PM 38.4303 -106.2100 137° Southeast 318 366 25,000  Level Denver Center
Thu 04:56:28 PM 38.3453 -106.1083 137° Southeast 316 364 25,000  Level Denver Center
Thu 04:57:29 PM 38.2844 -106.0333 136° Southeast 317 365 25,000  Level Denver Center
Thu 04:58:31 PM 38.2114 -105.9486 138° Southeast 318 366 25,000  Level Denver Center
Thu 04:59:33 PM 38.1514 -105.8742 136° Southeast 317 365 25,000  Level Denver Center
Thu 05:00:34 PM 38.1006 -105.8147 137° Southeast 313 360 25,000  Level Denver Center
Thu 05:01:49 PM 38.0178 -105.7144 136° Southeast 321 369 25,000  Level Denver Center
Thu 05:02:51 PM 37.9350 -105.6186 138° Southeast 317 365 25,000  Level Denver Center
Thu 05:03:53 PM 37.8733 -105.5442 136° Southeast 319 367 25,000  Level Denver Center
Thu 05:04:55 PM 37.8028 -105.4594 136° Southeast 316 364 25,000  Level Denver Center
Thu 05:05:56 PM 37.7383 -105.3872 138° Southeast 319 367 25,000  Level Denver Center
Thu 05:06:58 PM 37.6789 -105.3147 136° Southeast 316 364 25,000  Level Denver Center
Thu 05:08:00 PM 37.6072 -105.2331 138° Southeast 312 359 25,000  Level Denver Center
Thu 05:09:02 PM 37.5492 -105.1619 136° Southeast 309 356 25,000  Level Denver Center
Thu 05:10:04 PM 37.4775 -105.0797 138° Southeast 309 356 25,000  Level Denver Center
Thu 05:11:18 PM 37.4161 -105.0089 137° Southeast 312 359 25,000  Level Denver Center
Thu 05:12:20 PM 37.3333 -104.9150 138° Southeast 313 360 25,000  Level Denver Center
Thu 05:13:22 PM 37.2633 -104.8325 137° Southeast 311 358 25,000  Level Denver Center
Thu 05:14:24 PM 37.2019 -104.7639 138° Southeast 309 356 25,000  Level Denver Center
Thu 05:15:26 PM 37.1431 -104.6942 137° Southeast 307 353 25,000  Level Denver Center
Thu 05:16:28 PM 37.0719 -104.6139 138° Southeast 308 354 25,000  Level Denver Center
Thu 05:17:29 PM 37.0219 -104.5558 137° Southeast 308 354 25,000  Level Denver Center
Thu 05:18:31 PM 36.9406 -104.4644 138° Southeast 308 354 25,000  Level Denver Center
Thu 05:19:33 PM 36.8797 -104.3933 137° Southeast 311 358 25,000  Level Denver Center
Thu 05:20:01 PM 36.8478 -104.3567 137° Southeast 311 358 25,000  Level Albuquerque Center
Thu 05:21:03 PM 36.7761 -104.2761 138° Southeast 312 359 25,000  Level Albuquerque Center
Thu 05:22:04 PM 36.7161 -104.2058 137° Southeast 311 358 25,000  Level Albuquerque Center
Thu 05:23:06 PM 36.6483 -104.1344 140° Southeast 311 358 25,000  Level Albuquerque Center
Thu 05:24:08 PM 36.5836 -104.0639 139° Southeast 309 356 25,000  Level Albuquerque Center
Thu 05:25:10 PM 36.5200 -103.9925 138° Southeast 307 353 25,000  Level Albuquerque Center
Thu 05:26:12 PM 36.4447 -103.9072 138° Southeast 310 357 25,000  Level Albuquerque Center
Thu 05:27:14 PM 36.3803 -103.8353 138° Southeast 308 354 25,000  Level Albuquerque Center
Thu 05:28:16 PM 36.3169 -103.7650 138° Southeast 306 352 25,000  Level Albuquerque Center
Thu 05:29:18 PM 36.2531 -103.6936 138° Southeast 305 351 25,000  Level Albuquerque Center
Thu 05:30:20 PM 36.1886 -103.6242 139° Southeast 305 351 25,000  Level Albuquerque Center
Thu 05:31:22 PM 36.1242 -103.5506 137° Southeast 309 356 25,000  Level Albuquerque Center
Thu 05:32:24 PM 36.0586 -103.4769 138° Southeast 312 359 25,000  Level Albuquerque Center
Thu 05:33:26 PM 35.9933 -103.4050 138° Southeast 311 358 25,000  Level Albuquerque Center
Thu 05:34:28 PM 35.9283 -103.3350 139° Southeast 309 356 25,000  Level Albuquerque Center
Thu 05:35:30 PM 35.8519 -103.2506 138° Southeast 311 358 25,000  Level Albuquerque Center
Thu 05:36:32 PM 35.7861 -103.1792 139° Southeast 311 358 25,000  Level Albuquerque Center
Thu 05:37:34 PM 35.7219 -103.1089 138° Southeast 308 354 25,000  Level Albuquerque Center
Thu 05:38:36 PM 35.6572 -103.0381 138° Southeast 307 353 25,000  Level Albuquerque Center
Thu 05:39:38 PM 35.5925 -102.9683 139° Southeast 306 352 25,000  Level Albuquerque Center
Thu 05:40:39 PM 35.5272 -102.8981 139° Southeast 306 352 25,000  Level Albuquerque Center
Thu 05:41:41 PM 35.4633 -102.8278 138° Southeast 306 352 25,000  Level Albuquerque Center
Thu 05:42:43 PM 35.3989 -102.7583 139° Southeast 305 351 25,000  Level Albuquerque Center
Thu 05:43:45 PM 35.3225 -102.6753 138° Southeast 310 357 25,000  Level Albuquerque Center
Thu 05:44:47 PM 35.2558 -102.6033 139° Southeast 309 356 25,000  Level Albuquerque Center
Thu 05:45:49 PM 35.1911 -102.5347 139° Southeast 309 356 25,000  Level Albuquerque Center
Thu 05:46:51 PM 35.1272 -102.4656 138° Southeast 308 354 25,000  Level Albuquerque Center
Thu 05:47:53 PM 35.0633 -102.3961 138° Southeast 310 357 25,000  Level Albuquerque Center
Thu 05:48:55 PM 34.9969 -102.3275 140° Southeast 313 360 25,000  Level Albuquerque Center
Thu 05:49:57 PM 34.9331 -102.2572 138° Southeast 312 359 25,000  Level Albuquerque Center
Thu 05:50:59 PM 34.8544 -102.1758 140° Southeast 312 359 25,000  Level Albuquerque Center
Thu 05:52:01 PM 34.7911 -102.1083 139° Southeast 306 352 25,000  Level Albuquerque Center
Thu 05:53:03 PM 34.7272 -102.0406 139° Southeast 308 354 25,000  Level Albuquerque Center
Thu 05:54:05 PM 34.6611 -101.9725 140° Southeast 311 358 25,000  Level Albuquerque Center
Thu 05:55:07 PM 34.5961 -101.9017 138° Southeast 315 362 25,000  Level Albuquerque Center
Thu 05:56:09 PM 34.5169 -101.8197 140° Southeast 314 361 25,000  Level Albuquerque Center
Thu 05:57:11 PM 34.4506 -101.7519 140° Southeast 314 361 25,000  Level Albuquerque Center
Thu 05:58:12 PM 34.3850 -101.6831 139° Southeast 313 360 25,000  Level Albuquerque Center
Thu 05:58:46 PM 34.3558 -101.6547 141° Southeast 322 371 25,000  Level Fort Worth Center
Thu 05:59:46 PM 34.2753 -101.5678 138° Southeast 321 369 25,000  Level Fort Worth Center
Thu 06:00:46 PM 34.2147 -101.5097 142° Southeast 321 369 25,000  Level Fort Worth Center
Thu 06:01:46 PM 34.1442 -101.4361 139° Southeast 321 369 25,000  Level Fort Worth Center
Thu 06:02:46 PM 34.0836 -101.3731 139° Southeast 321 369 25,000  Level Fort Worth Center
Thu 06:03:46 PM 34.0108 -101.2944 138° Southeast 326 375 25,000  Level Fort Worth Center
Thu 06:04:46 PM 33.9522 -101.2369 141° Southeast 316 364 25,000  Level Fort Worth Center
Thu 06:05:46 PM 33.8792 -101.1611 139° Southeast 316 364 25,000  Level Fort Worth Center
Thu 06:06:46 PM 33.8206 -101.1011 140° Southeast 316 364 25,000  Level Fort Worth Center
Thu 06:07:46 PM 33.7497 -101.0281 139° Southeast 310 357 25,000  Level Fort Worth Center
Thu 06:08:46 PM 33.6928 -100.9683 139° Southeast 315 362 25,000  Level Fort Worth Center
Thu 06:09:46 PM 33.6219 -100.8931 138° Southeast 312 359 25,000  Level Fort Worth Center
Thu 06:10:46 PM 33.5589 -100.8333 142° Southeast 318 366 25,000  Level Fort Worth Center
Thu 06:11:46 PM 33.4722 -100.7950 160° South 311 358 25,000  Level Fort Worth Center
Thu 06:12:46 PM 33.3894 -100.7669 164° South 311 358 25,000  Level Fort Worth Center
Thu 06:13:46 PM 33.3111 -100.7367 162° South 299 344 25,000  Level Fort Worth Center
Thu 06:14:46 PM 33.2303 -100.7114 165° South 299 344 25,000  Level Fort Worth Center
Thu 06:15:46 PM 33.1497 -100.6836 164° South 299 344 25,000  Level Fort Worth Center
Thu 06:16:46 PM 33.0669 -100.6558 164° South 299 344 25,000  Level Fort Worth Center
Thu 06:17:46 PM 32.9842 -100.6281 164° South 299 344 25,000  Level Fort Worth Center
Thu 06:18:46 PM 32.9033 -100.6028 165° South 299 344 25,000  Level Fort Worth Center
Thu 06:19:46 PM 32.8228 -100.5753 164° South 299 344 25,000  Level Fort Worth Center
Thu 06:20:46 PM 32.7400 -100.5475 164° South 299 344 25,000  Level Fort Worth Center
Thu 06:21:46 PM 32.6592 -100.5225 165° South 299 344 25,000  Level Fort Worth Center
Thu 06:22:46 PM 32.5783 -100.4925 163° South 299 344 25,000  Level Fort Worth Center
Thu 06:23:46 PM 32.4956 -100.4675 166° South 299 344 25,000  Level Fort Worth Center
Thu 06:24:46 PM 32.4128 -100.4403 164° South 304 350 25,000  Level Fort Worth Center
Thu 06:25:46 PM 32.3297 -100.4128 164° South 304 350 25,000  Level Fort Worth Center
Thu 06:26:46 PM 32.2469 -100.3856 164° South 304 350 25,000  Level Fort Worth Center
Thu 06:27:46 PM 32.1683 -100.3583 164° South 304 350 25,000  Level Fort Worth Center
Thu 06:28:46 PM 32.0856 -100.3311 164° South 299 344 25,000  Level Fort Worth Center
Thu 06:29:46 PM 32.0047 -100.3067 166° South 299 344 25,000  Level Fort Worth Center
Thu 06:30:46 PM 31.9175 -100.2769 164° South 305 351 25,000  Level Fort Worth Center
Thu 06:31:46 PM 31.8347 -100.2497 164° South 305 351 25,000  Level Fort Worth Center
Thu 06:32:46 PM 31.7539 -100.2253 166° South 305 351 25,000  Level Fort Worth Center
Thu 06:33:46 PM 31.6708 -100.1983 165° South 305 351 25,000  Level Fort Worth Center
Thu 06:34:46 PM 31.5964 -100.1694 162° South 310 357 25,000  Level Fort Worth Center
Thu 06:36:45 PM 31.4333 -100.1189 165° South 308 354 25,000  Level Houston Center
Thu 06:37:47 PM 31.3506 -100.0919 164° South 309 356 25,000  Level Houston Center
Thu 06:38:49 PM 31.2900 -100.0250 137° Southeast 320 368 25,000  Level Houston Center
Thu 06:39:51 PM 31.2486 -99.9061 112° Southeast 328 377 25,000  Level Houston Center
Thu 06:40:54 PM 31.2083 -99.8092 116° Southeast 330 380 25,000 -336 Level Houston Center
Thu 06:41:56 PM 31.1697 -99.7111 115° Southeast 330 380 24,300 -484 Descending Houston Center
Thu 06:42:58 PM 31.1292 -99.6081 115° Southeast 345 397 24,000 -145 Descending Houston Center
Thu 06:44:00 PM 31.0894 -99.5100 115° Southeast 336 387 24,000 -339 Level Houston Center
Thu 06:45:02 PM 31.0506 -99.4097 114° Southeast 337 388 23,300 -1,065 Descending Houston Center
Thu 06:46:04 PM 31.0000 -99.2847 115° Southeast 351 404 21,800 -1,258 Descending Houston Center
Thu 06:47:06 PM 30.9583 -99.1806 115° Southeast 354 407 20,700 -1,161 Descending Houston Center
Thu 06:48:08 PM 30.9181 -99.0811 115° Southeast 355 409 19,400 -1,403 Descending Houston Center
Thu 06:49:10 PM 30.8753 -98.9769 116° Southeast 354 407 17,800 -1,500 Descending Houston Center
Thu 06:50:12 PM 30.8317 -98.8528 112° Southeast 354 407 16,300 -1,200 Descending Houston Center
Thu 06:51:15 PM 30.8242 -98.7403 94° East 347 399 15,300 -1,104 Descending Houston Center
Thu 06:52:17 PM 30.8100 -98.6281 98° East 347 399 14,000 -1,355 Descending Houston Center
Thu 06:53:19 PM 30.7883 -98.5172 103° East 348 400 12,500 -1,548 Descending Houston Center
Thu 06:54:21 PM 30.7731 -98.4122 100° East 332 382 10,800 -1,694 Descending Houston Center
Thu 06:55:23 PM 30.7572 -98.3058 100° East 329 379 9,000 -1,694 Descending Houston Center
Thu 06:56:25 PM 30.7411 -98.2022 100° East 326 375 7,300 -1,452 Descending Houston Center
Thu 06:57:27 PM 30.7211 -98.0839 101° East 322 371 6,000 -677 Descending Houston Center
Thu 06:58:29 PM 30.6742 -98.0056 125° Southeast 309 356 5,900  Descending Houston Center
Thu 06:59:31 PM 30.6244 -97.9292 127° Southeast 299 344 6,000  Climbing Houston Center
Thu 07:00:34 PM 30.5747 -97.8542 128° Southeast 293 337 5,900  Descending Houston Center
Thu 07:01:36 PM 30.5272 -97.7831 128° Southeast 283 326 6,000 -435 Climbing Houston Center
Thu 07:02:38 PM 30.4933 -97.6989 115° Southeast 292 336 5,000 -1,355 Descending Houston Center
Thu 07:03:40 PM 30.4153 -97.6664 160° South 271 312 3,200 -1,065 Descending Houston Center
Thu 07:04:42 PM 30.3603 -97.6603 175° South 217 250 2,800 -242 Descending Houston Center
Thu 07:05:44 PM 30.3172 -97.6594 179° South 175 201 2,700 -581 Descending Houston Center
Thu 07:06:46 PM 30.2681 -97.6594 180° South 171 197 1,600 -726 Descending Houston Center
Thu 07:07:48 PM 30.2378 -97.6583 178° South 127 146 1,200 -290 Descending Houston Center
Thu 07:08:50 PM 30.2028 -97.6564 177° South 121 139 1,000 -194 Descending Houston Center
Thu 07:10:00 PM 30.1833 -97.6667 221° Southwest  Level FlightAware Approximate
Thu 07:17:00 PM 30.1945 -97.6699 221° Southwest  Level Estimated

Login

Don't have an account? Register now (free) for customized features, flight alerts, and more!